Time;durP1;ratioP1;P1;durP2;ratioP2;P2;SDS_P1;SDS_P2;PMS_P1;PMS_P2;Temp;Humidity;BMP_temperature;BMP_pressure;BME280_temperature;BME280_humidity;BME280_pressure;Samples;Min_cycle;Max_cycle;Signal;HPM_P1;HPM_P2
2022/06/01 00:00:22;;;;;;;;;;;19.50;96.80;;;;;;5054732;28;20272;-53
2022/06/01 00:02:47;;;;;;;;;;;19.50;96.70;;;;;;5054617;28;19955;-54
2022/06/01 00:05:13;;;;;;;;;;;19.50;96.70;;;;;;5054622;28;20320;-53
2022/06/01 00:07:38;;;;;;;;;;;19.50;96.70;;;;;;5054611;28;19913;-52
2022/06/01 00:10:04;;;;;;;;;;;19.50;96.70;;;;;;5054891;28;19909;-55
2022/06/01 00:12:30;;;;;;;;;;;19.50;96.70;;;;;;5054276;28;19913;-52
2022/06/01 00:14:56;;;;;;;;;;;19.50;96.70;;;;;;5054259;28;19955;-54
2022/06/01 00:17:21;;;;;;;;;;;19.50;96.70;;;;;;5054759;28;19972;-49
2022/06/01 00:19:47;;;;;;;;;;;19.50;96.90;;;;;;5054338;28;19913;-50
2022/06/01 00:22:12;;;;;;;;;;;19.60;96.70;;;;;;5054174;28;20284;-52
2022/06/01 00:24:42;;;;;;;;;;;19.60;96.70;;;;;;5054048;28;19916;-51
2022/06/01 00:27:08;;;;;;;;;;;19.50;96.70;;;;;;5054036;28;19913;-54
2022/06/01 00:29:33;;;;;;;;;;;19.50;96.70;;;;;;5054257;28;20011;-53
2022/06/01 00:31:59;;;;;;;;;;;19.60;96.70;;;;;;5054287;28;20004;-54
2022/06/01 00:34:25;;;;;;;;;;;19.60;96.70;;;;;;5054582;28;19909;-55
2022/06/01 00:36:50;;;;;;;;;;;19.60;96.70;;;;;;5054588;28;19931;-53
2022/06/01 00:39:15;;;;;;;;;;;19.60;96.70;;;;;;5054088;28;19963;-52
2022/06/01 00:41:41;;;;;;;;;;;19.60;96.70;;;;;;5053847;28;19966;-53
2022/06/01 00:44:06;;;;;;;;;;;19.60;96.70;;;;;;5054162;28;20007;-54
2022/06/01 00:46:32;;;;;;;;;;;19.60;96.70;;;;;;5054103;28;19932;-51
2022/06/01 00:49:00;;;;;;;;;;;19.60;96.70;;;;;;5053995;28;20018;-55
2022/06/01 00:51:26;;;;;;;;;;;19.50;96.60;;;;;;5053712;28;20275;-55
2022/06/01 00:53:53;;;;;;;;;;;19.60;96.70;;;;;;5052568;28;19921;-55
2022/06/01 00:56:25;;;;;;;;;;;19.60;96.60;;;;;;5054384;28;19916;-53
2022/06/01 00:58:51;;;;;;;;;;;19.60;96.60;;;;;;5052705;28;19935;-52
2022/06/01 01:01:19;;;;;;;;;;;19.60;96.60;;;;;;5054002;28;19924;-53
2022/06/01 01:03:47;;;;;;;;;;;19.60;96.60;;;;;;5054259;28;19916;-55
2022/06/01 01:06:13;;;;;;;;;;;19.60;96.60;;;;;;5054665;28;20249;-53
2022/06/01 01:08:38;;;;;;;;;;;19.50;96.60;;;;;;5058085;28;19916;-55
2022/06/01 01:11:08;;;;;;;;;;;19.50;96.60;;;;;;5057668;28;19909;-53
2022/06/01 01:13:33;;;;;;;;;;;19.50;96.60;;;;;;5057631;28;19909;-56
2022/06/01 01:15:59;;;;;;;;;;;19.60;96.60;;;;;;5057572;28;19909;-53
2022/06/01 01:18:30;;;;;;;;;;;19.60;96.60;;;;;;5056443;28;20295;-53
2022/06/01 01:20:58;;;;;;;;;;;19.50;96.60;;;;;;5057657;28;20015;-54
2022/06/01 01:23:38;;;;;;;;;;;19.60;96.60;;;;;;5057399;28;19916;-53
2022/06/01 01:26:04;;;;;;;;;;;19.50;96.60;;;;;;5057708;28;19963;-51
2022/06/01 01:28:30;;;;;;;;;;;19.60;96.80;;;;;;5057357;28;19915;-52
2022/06/01 01:31:06;;;;;;;;;;;19.60;96.60;;;;;;5057566;28;19908;-54
2022/06/01 01:33:32;;;;;;;;;;;19.60;96.60;;;;;;5057584;28;19909;-55
2022/06/01 01:36:02;;;;;;;;;;;19.60;96.60;;;;;;5057777;28;19958;-53
2022/06/01 01:38:46;;;;;;;;;;;19.50;96.60;;;;;;5057066;28;19917;-55
2022/06/01 01:41:11;;;;;;;;;;;19.60;96.60;;;;;;5057123;28;19913;-52
2022/06/01 01:43:41;;;;;;;;;;;19.50;96.60;;;;;;5057357;28;19909;-52
2022/06/01 01:46:06;;;;;;;;;;;19.50;96.60;;;;;;5057308;28;19912;-52
2022/06/01 01:48:34;;;;;;;;;;;19.60;96.60;;;;;;5056923;28;20283;-50
2022/06/01 01:51:00;;;;;;;;;;;19.60;96.60;;;;;;5057540;28;19908;-54
2022/06/01 01:53:25;;;;;;;;;;;19.60;96.60;;;;;;5058541;28;19916;-51
2022/06/01 01:56:00;;;;;;;;;;;19.60;96.60;;;;;;5076879;28;19994;-54
2022/06/01 01:58:37;;;;;;;;;;;19.60;96.60;;;;;;5058628;28;20279;-54
2022/06/01 02:01:06;;;;;;;;;;;19.60;96.60;;;;;;5076975;28;19913;-53
2022/06/01 02:03:34;;;;;;;;;;;19.60;96.60;;;;;;5077321;28;19955;-52
2022/06/01 02:06:07;;;;;;;;;;;19.60;96.60;;;;;;5076950;28;19999;-55
2022/06/01 02:08:51;;;;;;;;;;;19.60;96.60;;;;;;5076896;28;19908;-51
2022/06/01 02:14:14;;;;;;;;;;;19.60;96.50;;;;;;5076620;28;20278;-53
2022/06/01 02:16:43;;;;;;;;;;;19.60;96.50;;;;;;5076185;28;20007;-52
2022/06/01 02:19:11;;;;;;;;;;;19.60;96.60;;;;;;5076616;28;19919;-54
2022/06/01 02:21:36;;;;;;;;;;;19.60;96.60;;;;;;5058959;28;20320;-54
2022/06/01 02:24:02;;;;;;;;;;;19.60;96.60;;;;;;5076545;28;20031;-54
2022/06/01 02:26:28;;;;;;;;;;;19.60;96.50;;;;;;5076513;28;20010;-53
2022/06/01 02:28:57;;;;;;;;;;;19.60;96.50;;;;;;5076522;28;20029;-54
2022/06/01 02:31:24;;;;;;;;;;;19.60;96.50;;;;;;5076204;28;19948;-55
2022/06/01 02:33:50;;;;;;;;;;;19.60;96.50;;;;;;5076069;28;20365;-50
2022/06/01 02:36:17;;;;;;;;;;;19.60;96.50;;;;;;5076435;28;19908;-55
2022/06/01 02:38:44;;;;;;;;;;;19.60;96.60;;;;;;5076319;28;19958;-52
2022/06/01 02:42:25;;;;;;;;;;;19.60;96.60;;;;;;5076310;28;20004;-55
2022/06/01 02:43:55;;;;;;;;;;;19.60;96.60;;;;;;5075697;28;19908;-53
2022/06/01 02:46:21;;;;;;;;;;;19.60;96.60;;;;;;5075877;28;19995;-53
2022/06/01 02:48:47;;;;;;;;;;;19.60;96.60;;;;;;5076053;28;19916;-54
2022/06/01 02:51:12;;;;;;;;;;;19.60;96.60;;;;;;5076161;28;19909;-53
2022/06/01 02:53:38;;;;;;;;;;;19.60;96.60;;;;;;5076225;28;19927;-54
2022/06/01 02:56:04;;;;;;;;;;;19.60;96.60;;;;;;5075734;28;19908;-54
2022/06/01 02:58:29;;;;;;;;;;;19.60;96.60;;;;;;5075927;28;19958;-54
2022/06/01 03:00:58;;;;;;;;;;;19.50;96.50;;;;;;5075658;28;19920;-56
2022/06/01 03:03:23;;;;;;;;;;;19.60;96.50;;;;;;5075871;28;20351;-54
2022/06/01 03:05:49;;;;;;;;;;;19.50;96.50;;;;;;5075816;28;19909;-52
2022/06/01 03:08:15;;;;;;;;;;;19.60;96.50;;;;;;5075449;28;19908;-54
2022/06/01 03:10:40;;;;;;;;;;;19.60;96.50;;;;;;5075794;28;20216;-51
2022/06/01 03:13:07;;;;;;;;;;;19.60;96.50;;;;;;5075647;28;20008;-55
2022/06/01 03:15:32;;;;;;;;;;;19.60;96.50;;;;;;5075243;28;19908;-51
2022/06/01 03:17:58;;;;;;;;;;;19.60;96.50;;;;;;5075558;28;19909;-50
2022/06/01 03:20:25;;;;;;;;;;;19.60;96.50;;;;;;5075382;28;20335;-53
2022/06/01 03:22:50;;;;;;;;;;;19.60;96.50;;;;;;5075415;28;20007;-55
2022/06/01 03:25:17;;;;;;;;;;;19.60;96.50;;;;;;5075303;28;19955;-51
2022/06/01 03:27:43;;;;;;;;;;;19.60;96.50;;;;;;5075447;28;19908;-51
2022/06/01 03:30:10;;;;;;;;;;;19.60;96.50;;;;;;5074232;28;19944;-52
2022/06/01 03:32:36;;;;;;;;;;;19.60;96.50;;;;;;5075199;28;19908;-53
2022/06/01 03:35:02;;;;;;;;;;;19.60;96.50;;;;;;5075005;28;20310;-51
2022/06/01 03:37:28;;;;;;;;;;;19.60;96.50;;;;;;5075076;28;19912;-53
2022/06/01 03:39:53;;;;;;;;;;;19.60;96.50;;;;;;5074856;28;20380;-51
2022/06/01 03:42:18;;;;;;;;;;;19.60;96.50;;;;;;5074965;28;19913;-51
2022/06/01 03:47:28;;;;;;;;;;;19.60;96.50;;;;;;5074911;28;20030;-51
2022/06/01 03:49:54;;;;;;;;;;;19.60;96.50;;;;;;5074868;28;19962;-55
2022/06/01 03:52:20;;;;;;;;;;;19.60;96.50;;;;;;5074592;28;19916;-50
2022/06/01 03:54:45;;;;;;;;;;;19.60;96.50;;;;;;5074581;28;19920;-53
2022/06/01 03:57:12;;;;;;;;;;;19.60;96.50;;;;;;5074720;28;19954;-55
2022/06/01 03:59:38;;;;;;;;;;;19.60;96.50;;;;;;5074544;28;19912;-53
2022/06/01 04:02:04;;;;;;;;;;;19.60;96.50;;;;;;5074583;28;20189;-52
2022/06/01 04:04:31;;;;;;;;;;;19.60;96.50;;;;;;5074558;28;19955;-53
2022/06/01 04:06:57;;;;;;;;;;;19.60;96.50;;;;;;5074113;28;19913;-55
2022/06/01 04:09:22;;;;;;;;;;;19.60;96.50;;;;;;5074060;28;19970;-54
2022/06/01 04:11:48;;;;;;;;;;;19.60;96.70;;;;;;5074009;28;19952;-54
2022/06/01 04:14:13;;;;;;;;;;;19.60;96.50;;;;;;5074354;28;20263;-55
2022/06/01 04:16:39;;;;;;;;;;;19.70;96.50;;;;;;5074278;28;19909;-52
2022/06/01 04:19:04;;;;;;;;;;;19.60;96.40;;;;;;5056221;28;19912;-54
2022/06/01 04:21:33;;;;;;;;;;;19.60;96.40;;;;;;5074140;28;19920;-52
2022/06/01 04:24:00;;;;;;;;;;;19.70;96.40;;;;;;5074204;28;20347;-55
2022/06/01 04:26:25;;;;;;;;;;;19.70;96.40;;;;;;5073860;28;19993;-52
2022/06/01 04:28:51;;;;;;;;;;;19.70;96.40;;;;;;5074126;28;19959;-55
2022/06/01 04:31:16;;;;;;;;;;;19.70;96.40;;;;;;5073748;28;19913;-54
2022/06/01 04:33:43;;;;;;;;;;;19.70;96.40;;;;;;5073680;28;19915;-55
2022/06/01 04:36:08;;;;;;;;;;;19.70;96.40;;;;;;5074195;28;20396;-52
2022/06/01 04:38:34;;;;;;;;;;;19.70;96.40;;;;;;5073503;28;19912;-55
2022/06/01 04:40:59;;;;;;;;;;;19.70;96.40;;;;;;5073251;28;19919;-55
2022/06/01 04:43:25;;;;;;;;;;;19.70;96.40;;;;;;5055886;28;19908;-53
2022/06/01 04:45:51;;;;;;;;;;;19.80;96.40;;;;;;5073758;28;20347;-56
2022/06/01 04:48:16;;;;;;;;;;;19.70;96.40;;;;;;5073435;28;20321;-50
2022/06/01 04:50:42;;;;;;;;;;;19.70;96.40;;;;;;5073905;28;19909;-55
2022/06/01 04:53:11;;;;;;;;;;;19.70;96.40;;;;;;5073419;28;19908;-55
2022/06/01 04:55:37;;;;;;;;;;;19.70;96.40;;;;;;5073828;28;19947;-54
2022/06/01 04:58:02;;;;;;;;;;;19.80;96.40;;;;;;5073648;28;19908;-54
2022/06/01 05:00:28;;;;;;;;;;;19.80;96.40;;;;;;5073937;28;19963;-54
2022/06/01 05:02:53;;;;;;;;;;;19.80;96.40;;;;;;5055550;28;19908;-54
2022/06/01 05:05:19;;;;;;;;;;;19.70;96.30;;;;;;5073442;28;19909;-52
2022/06/01 05:07:44;;;;;;;;;;;19.70;96.40;;;;;;5073551;28;19916;-54
2022/06/01 05:10:10;;;;;;;;;;;19.80;96.40;;;;;;5073198;28;19912;-54
2022/06/01 05:12:35;;;;;;;;;;;19.70;96.30;;;;;;5073428;28;19936;-54
2022/06/01 05:15:01;;;;;;;;;;;19.80;96.40;;;;;;5073456;28;19916;-53
2022/06/01 05:17:26;;;;;;;;;;;19.70;96.30;;;;;;5073019;28;19913;-53
2022/06/01 05:19:52;;;;;;;;;;;19.80;96.40;;;;;;5073049;28;19916;-55
2022/06/01 05:22:17;;;;;;;;;;;19.80;96.30;;;;;;5073352;28;20274;-53
2022/06/01 05:24:42;;;;;;;;;;;19.70;96.30;;;;;;5055372;28;19908;-52
2022/06/01 05:27:08;;;;;;;;;;;19.70;96.30;;;;;;5073019;28;19916;-53
2022/06/01 05:29:34;;;;;;;;;;;19.70;96.30;;;;;;5073420;28;20313;-52
2022/06/01 05:31:59;;;;;;;;;;;19.80;96.30;;;;;;5072956;28;19915;-55
2022/06/01 05:34:25;;;;;;;;;;;19.80;96.40;;;;;;5073079;28;19909;-53
2022/06/01 05:36:51;;;;;;;;;;;19.70;96.30;;;;;;5073281;28;19943;-53
2022/06/01 05:39:16;;;;;;;;;;;19.70;96.30;;;;;;5073066;28;20133;-54
2022/06/01 05:41:42;;;;;;;;;;;19.80;96.40;;;;;;5073175;28;19965;-54
2022/06/01 05:44:07;;;;;;;;;;;19.70;96.40;;;;;;5072870;28;20244;-54
2022/06/01 05:46:36;;;;;;;;;;;19.70;96.30;;;;;;5072731;28;19908;-53
2022/06/01 05:49:04;;;;;;;;;;;19.80;96.40;;;;;;5072769;28;19944;-53
2022/06/01 05:51:30;;;;;;;;;;;19.80;96.40;;;;;;5054800;28;19908;-55
2022/06/01 05:53:55;;;;;;;;;;;19.80;96.40;;;;;;5076380;28;19921;-54
2022/06/01 05:56:21;;;;;;;;;;;19.80;96.40;;;;;;5076325;28;19917;-55
2022/06/01 05:58:48;;;;;;;;;;;19.70;96.40;;;;;;5058590;28;20367;-54
2022/06/01 06:01:13;;;;;;;;;;;19.80;96.40;;;;;;5076045;28;19913;-52
2022/06/01 06:03:39;;;;;;;;;;;19.80;96.40;;;;;;5076515;28;19915;-54
2022/06/01 06:06:15;;;;;;;;;;;19.70;96.40;;;;;;5076265;28;20346;-54
2022/06/01 06:08:42;;;;;;;;;;;19.70;96.40;;;;;;5058354;28;20003;-53
2022/06/01 06:11:07;;;;;;;;;;;19.80;96.40;;;;;;5076185;28;19912;-53
2022/06/01 06:13:33;;;;;;;;;;;19.80;96.40;;;;;;5076170;28;19915;-54
2022/06/01 06:15:59;;;;;;;;;;;19.70;96.40;;;;;;5058151;28;19908;-53
2022/06/01 06:18:25;;;;;;;;;;;19.70;96.40;;;;;;5075867;28;20340;-53
2022/06/01 06:20:50;;;;;;;;;;;19.70;96.60;;;;;;5058004;28;19912;-53
2022/06/01 06:23:16;;;;;;;;;;;19.70;96.40;;;;;;5058208;28;20370;-55
2022/06/01 06:25:42;;;;;;;;;;;19.70;96.40;;;;;;5075593;28;19996;-54
2022/06/01 06:28:07;;;;;;;;;;;19.70;96.40;;;;;;5075866;28;19954;-52
2022/06/01 06:30:34;;;;;;;;;;;19.70;96.40;;;;;;5075960;28;19943;-55
2022/06/01 06:32:59;;;;;;;;;;;19.70;96.50;;;;;;5076032;28;19908;-54
2022/06/01 06:35:25;;;;;;;;;;;19.70;96.50;;;;;;5075615;28;19944;-49
2022/06/01 06:37:50;;;;;;;;;;;19.70;96.50;;;;;;5075838;28;19915;-54
2022/06/01 06:40:16;;;;;;;;;;;19.70;96.50;;;;;;5075349;28;19912;-52
2022/06/01 06:42:42;;;;;;;;;;;19.70;96.70;;;;;;5075631;28;19926;-54
2022/06/01 06:45:08;;;;;;;;;;;19.70;96.50;;;;;;5075402;28;19908;-55
2022/06/01 06:47:34;;;;;;;;;;;19.70;96.50;;;;;;5075217;28;20332;-54
2022/06/01 06:50:00;;;;;;;;;;;19.70;96.50;;;;;;5075706;28;19908;-53
2022/06/01 06:52:26;;;;;;;;;;;19.70;96.50;;;;;;5075681;28;19987;-54
2022/06/01 06:54:52;;;;;;;;;;;19.70;96.50;;;;;;5075529;28;20005;-55
2022/06/01 06:57:17;;;;;;;;;;;19.70;96.50;;;;;;5075816;28;19995;-53
2022/06/01 06:59:43;;;;;;;;;;;19.70;96.50;;;;;;5075191;28;19946;-55
2022/06/01 07:02:09;;;;;;;;;;;19.60;96.50;;;;;;5075258;28;20393;-54
2022/06/01 07:04:35;;;;;;;;;;;19.70;96.50;;;;;;5075107;28;19908;-53
2022/06/01 07:07:01;;;;;;;;;;;19.60;96.50;;;;;;5075166;28;20367;-55
2022/06/01 07:09:27;;;;;;;;;;;19.60;96.50;;;;;;5057212;28;19919;-51
2022/06/01 07:11:52;;;;;;;;;;;19.70;96.60;;;;;;5057143;28;19908;-54
2022/06/01 07:14:18;;;;;;;;;;;19.60;96.50;;;;;;5075571;28;19912;-51
2022/06/01 07:16:43;;;;;;;;;;;19.60;96.60;;;;;;5074892;28;19956;-55
2022/06/01 07:19:09;;;;;;;;;;;19.60;96.60;;;;;;5075059;28;19912;-55
2022/06/01 07:21:36;;;;;;;;;;;19.60;96.60;;;;;;5056437;28;19947;-52
2022/06/01 07:24:05;;;;;;;;;;;19.60;96.60;;;;;;5056910;28;20351;-54
2022/06/01 07:26:33;;;;;;;;;;;19.60;96.60;;;;;;5074443;28;19909;-55
2022/06/01 07:28:58;;;;;;;;;;;19.60;96.60;;;;;;5056524;28;19908;-55
2022/06/01 07:31:24;;;;;;;;;;;19.60;96.60;;;;;;5074562;28;20031;-52
2022/06/01 07:33:51;;;;;;;;;;;19.60;96.60;;;;;;5074068;28;19908;-53
2022/06/01 07:36:17;;;;;;;;;;;19.60;96.60;;;;;;5074488;28;19915;-50
2022/06/01 07:44:11;;;;;;;;;;;19.60;96.60;;;;;;5074301;28;20279;-53
2022/06/01 07:46:37;;;;;;;;;;;19.60;96.60;;;;;;5074553;28;19912;-53
2022/06/01 07:49:03;;;;;;;;;;;19.60;96.70;;;;;;5074202;28;20001;-53
2022/06/01 07:51:29;;;;;;;;;;;19.60;96.70;;;;;;5074447;28;20438;-55
2022/06/01 07:53:55;;;;;;;;;;;19.60;96.70;;;;;;5074401;28;19956;-55
2022/06/01 07:56:20;;;;;;;;;;;19.60;96.70;;;;;;5074451;28;20252;-54
2022/06/01 07:58:46;;;;;;;;;;;19.60;96.70;;;;;;5074202;28;19958;-52
2022/06/01 08:01:13;;;;;;;;;;;19.50;96.70;;;;;;5073275;28;22331;-52
2022/06/01 08:03:38;;;;;;;;;;;19.50;96.70;;;;;;5056389;28;20018;-54
2022/06/01 08:06:04;;;;;;;;;;;19.50;96.70;;;;;;5074312;28;19909;-52
2022/06/01 08:08:29;;;;;;;;;;;19.50;96.70;;;;;;5074084;28;19951;-52
2022/06/01 08:10:59;;;;;;;;;;;19.50;96.80;;;;;;5056629;28;20370;-56
2022/06/01 08:13:24;;;;;;;;;;;19.50;96.80;;;;;;5074292;28;19909;-54
2022/06/01 08:15:50;;;;;;;;;;;19.50;96.80;;;;;;5074139;28;20403;-54
2022/06/01 08:18:18;;;;;;;;;;;19.50;96.80;;;;;;5073805;28;20363;-55
2022/06/01 08:20:44;;;;;;;;;;;19.50;96.80;;;;;;5074259;28;19917;-55
2022/06/01 08:23:10;;;;;;;;;;;19.60;96.80;;;;;;5074124;28;19909;-54
2022/06/01 08:25:35;;;;;;;;;;;19.50;96.80;;;;;;5073958;28;20022;-55
2022/06/01 08:28:01;;;;;;;;;;;19.50;96.80;;;;;;5073841;28;19916;-53
2022/06/01 08:30:28;;;;;;;;;;;19.50;96.80;;;;;;5073640;28;19913;-54
2022/06/01 08:32:54;;;;;;;;;;;19.50;96.80;;;;;;5073896;28;20274;-55
2022/06/01 08:35:22;;;;;;;;;;;19.50;96.90;;;;;;5074224;28;20255;-52
2022/06/01 08:37:47;;;;;;;;;;;19.50;96.90;;;;;;5073587;28;19912;-53
2022/06/01 08:40:14;;;;;;;;;;;19.50;96.90;;;;;;5073667;28;20012;-55
2022/06/01 08:42:43;;;;;;;;;;;19.50;96.90;;;;;;5073943;28;20351;-50
2022/06/01 08:45:08;;;;;;;;;;;19.50;96.90;;;;;;5073564;28;19940;-55
2022/06/01 08:47:35;;;;;;;;;;;19.40;96.90;;;;;;5073829;28;20381;-54
2022/06/01 08:50:03;;;;;;;;;;;19.40;96.90;;;;;;5073753;28;19909;-55
2022/06/01 08:52:29;;;;;;;;;;;19.40;96.90;;;;;;5073760;28;19916;-55
2022/06/01 08:54:54;;;;;;;;;;;19.50;97.00;;;;;;5073882;28;20425;-54
2022/06/01 08:57:24;;;;;;;;;;;19.50;97.00;;;;;;5074105;28;19912;-53
2022/06/01 09:00:06;;;;;;;;;;;19.40;96.90;;;;;;5073648;28;19919;-55
2022/06/01 09:02:37;;;;;;;;;;;19.40;97.00;;;;;;5073066;28;19943;-52
2022/06/01 09:05:29;;;;;;;;;;;19.40;97.00;;;;;;5055650;28;19908;-54
2022/06/01 09:08:05;;;;;;;;;;;19.40;97.00;;;;;;5068728;28;19915;-55
2022/06/01 09:10:50;;;;;;;;;;;19.40;97.00;;;;;;5073409;28;20405;-55
2022/06/01 09:13:23;;;;;;;;;;;19.40;97.00;;;;;;5073534;28;19909;-56
2022/06/01 09:15:54;;;;;;;;;;;19.40;97.00;;;;;;5073699;28;19908;-54
2022/06/01 09:18:21;;;;;;;;;;;19.40;97.00;;;;;;5073383;28;20012;-51
2022/06/01 09:23:31;;;;;;;;;;;19.40;97.00;;;;;;5073602;28;20010;-52
2022/06/01 09:25:57;;;;;;;;;;;19.40;97.00;;;;;;5073200;28;19912;-52
2022/06/01 09:28:24;;;;;;;;;;;19.40;97.00;;;;;;5076297;28;19975;-52
2022/06/01 09:30:55;;;;;;;;;;;19.40;97.10;;;;;;5077123;28;19915;-51
2022/06/01 09:33:27;;;;;;;;;;;19.40;97.10;;;;;;5059443;28;19908;-53
2022/06/01 09:36:00;;;;;;;;;;;19.40;97.10;;;;;;5076948;28;20365;-54
2022/06/01 09:38:41;;;;;;;;;;;19.40;97.10;;;;;;5076821;28;19915;-54
2022/06/01 09:41:09;;;;;;;;;;;19.40;97.20;;;;;;5077126;28;20027;-54
2022/06/01 09:43:37;;;;;;;;;;;19.30;97.20;;;;;;5076753;28;19962;-54
2022/06/01 09:46:02;;;;;;;;;;;19.40;97.40;;;;;;5076737;28;19916;-54
2022/06/01 09:48:33;;;;;;;;;;;19.30;97.20;;;;;;5076963;28;19909;-54
2022/06/01 09:51:01;;;;;;;;;;;19.30;97.20;;;;;;5076838;28;20282;-52
2022/06/01 09:53:30;;;;;;;;;;;19.30;97.40;;;;;;5076805;28;20003;-54
2022/06/01 09:56:01;;;;;;;;;;;19.30;97.20;;;;;;5076822;28;19909;-54
2022/06/01 10:06:57;;;;;;;;;;;19.30;97.20;;;;;;5076646;28;20278;-52
2022/06/01 10:09:25;;;;;;;;;;;19.30;97.30;;;;;;5076698;28;19944;-54
2022/06/01 10:11:51;;;;;;;;;;;19.30;97.30;;;;;;5076619;28;19920;-53
2022/06/01 10:14:21;;;;;;;;;;;19.30;97.30;;;;;;5076283;28;20363;-55
2022/06/01 10:17:02;;;;;;;;;;;19.30;97.30;;;;;;5076050;28;19979;-55
2022/06/01 10:19:53;;;;;;;;;;;19.30;97.30;;;;;;5076070;28;20011;-54
2022/06/01 10:22:38;;;;;;;;;;;19.30;97.30;;;;;;5071466;28;20339;-52
2022/06/01 10:25:17;;;;;;;;;;;19.30;97.30;;;;;;5075858;28;20416;-52
2022/06/01 10:27:55;;;;;;;;;;;19.30;97.30;;;;;;5076034;28;20274;-54
2022/06/01 10:30:32;;;;;;;;;;;19.30;97.30;;;;;;5058028;28;19912;-52
2022/06/01 10:33:19;;;;;;;;;;;19.30;97.30;;;;;;5076230;28;19916;-52
2022/06/01 10:35:47;;;;;;;;;;;19.30;97.30;;;;;;5075910;28;19917;-54
2022/06/01 10:38:19;;;;;;;;;;;19.30;97.30;;;;;;5075308;28;19915;-53
2022/06/01 10:40:45;;;;;;;;;;;19.30;97.40;;;;;;5075647;28;19981;-50
2022/06/01 10:43:23;;;;;;;;;;;19.30;97.40;;;;;;5075591;28;20367;-54
2022/06/01 10:46:00;;;;;;;;;;;19.30;97.40;;;;;;5076048;28;19908;-53
2022/06/01 10:48:30;;;;;;;;;;;19.30;97.40;;;;;;5075580;28;19908;-52
2022/06/01 10:50:58;;;;;;;;;;;19.30;97.40;;;;;;5075705;28;19978;-53
2022/06/01 10:53:31;;;;;;;;;;;19.30;97.40;;;;;;5075221;28;20424;-52
2022/06/01 10:55:56;;;;;;;;;;;19.30;97.40;;;;;;5057740;28;19932;-53
2022/06/01 10:58:24;;;;;;;;;;;19.20;97.40;;;;;;5075461;28;20359;-49
2022/06/01 11:00:50;;;;;;;;;;;19.30;97.40;;;;;;5075592;28;19999;-53
2022/06/01 11:03:34;;;;;;;;;;;19.30;97.40;;;;;;5076014;28;20382;-55
2022/06/01 11:06:06;;;;;;;;;;;19.30;97.40;;;;;;5075496;28;19915;-53
2022/06/01 11:08:34;;;;;;;;;;;19.30;97.40;;;;;;5075145;28;19909;-52
2022/06/01 11:11:08;;;;;;;;;;;19.30;97.40;;;;;;5057360;28;19912;-52
2022/06/01 11:13:40;;;;;;;;;;;19.30;97.40;;;;;;5075761;28;19995;-53
2022/06/01 11:16:06;;;;;;;;;;;19.30;97.30;;;;;;5075142;28;19963;-51
2022/06/01 11:18:31;;;;;;;;;;;19.30;97.40;;;;;;5075113;28;20275;-56
2022/06/01 11:21:02;;;;;;;;;;;19.30;97.40;;;;;;5075234;28;19918;-55
2022/06/01 11:23:34;;;;;;;;;;;19.30;97.40;;;;;;5075372;28;20248;-53
2022/06/01 11:26:05;;;;;;;;;;;19.30;97.40;;;;;;5075216;28;20275;-54
2022/06/01 11:28:31;;;;;;;;;;;19.40;97.30;;;;;;5057004;28;19915;-54
2022/06/01 11:31:07;;;;;;;;;;;19.40;97.40;;;;;;5074808;28;19912;-53
2022/06/01 11:33:42;;;;;;;;;;;19.40;97.40;;;;;;5074843;28;19913;-49
2022/06/01 11:36:10;;;;;;;;;;;19.40;97.40;;;;;;5075166;28;19928;-54
2022/06/01 11:38:39;;;;;;;;;;;19.40;97.40;;;;;;5074644;28;19920;-55
2022/06/01 11:41:11;;;;;;;;;;;19.30;97.40;;;;;;5074822;28;20342;-53
2022/06/01 11:43:39;;;;;;;;;;;19.30;97.40;;;;;;5074980;28;19978;-55
2022/06/01 11:46:08;;;;;;;;;;;19.30;97.40;;;;;;5074543;28;19916;-55
2022/06/01 11:48:35;;;;;;;;;;;19.30;97.40;;;;;;5074700;28;19908;-54
2022/06/01 11:51:20;;;;;;;;;;;19.30;97.40;;;;;;5074012;28;19951;-54
2022/06/01 11:53:55;;;;;;;;;;;19.30;97.40;;;;;;5056239;28;20342;-54
2022/06/01 11:56:22;;;;;;;;;;;19.30;97.40;;;;;;5056426;28;20011;-53
2022/06/01 11:59:11;;;;;;;;;;;19.30;97.40;;;;;;5074548;28;19912;-55
2022/06/01 12:01:45;;;;;;;;;;;19.30;97.40;;;;;;5060420;28;19912;-54
2022/06/01 12:04:22;;;;;;;;;;;19.30;97.40;;;;;;5056207;28;19909;-52
2022/06/01 12:06:51;;;;;;;;;;;19.30;97.40;;;;;;5073766;28;20266;-54
2022/06/01 12:09:21;;;;;;;;;;;19.30;97.40;;;;;;5074175;28;19915;-52
2022/06/01 12:11:47;;;;;;;;;;;19.30;97.40;;;;;;5074278;28;20338;-53
2022/06/01 12:14:21;;;;;;;;;;;19.30;97.40;;;;;;5074334;28;19909;-53
2022/06/01 12:17:06;;;;;;;;;;;19.30;97.40;;;;;;5073848;28;20339;-51
2022/06/01 12:19:33;;;;;;;;;;;19.30;97.50;;;;;;5073765;28;20278;-52
2022/06/01 12:22:02;;;;;;;;;;;19.30;97.50;;;;;;5073782;28;20255;-54
2022/06/01 12:30:01;;;;;;;;;;;19.30;97.50;;;;;;5073839;28;19919;-50
2022/06/01 12:32:27;;;;;;;;;;;19.30;97.50;;;;;;5073842;28;20003;-53
2022/06/01 12:35:10;;;;;;;;;;;19.40;97.50;;;;;;5073985;28;20003;-54
2022/06/01 12:37:39;;;;;;;;;;;19.30;97.40;;;;;;5073908;28;20351;-52
2022/06/01 12:40:11;;;;;;;;;;;19.30;97.40;;;;;;5073474;28;19959;-53
2022/06/01 12:42:42;;;;;;;;;;;19.40;97.40;;;;;;5073900;28;19912;-55
2022/06/01 12:45:16;;;;;;;;;;;19.40;97.40;;;;;;5073245;28;19979;-55
2022/06/01 12:47:43;;;;;;;;;;;19.40;97.40;;;;;;5073695;28;20369;-54
2022/06/01 12:50:12;;;;;;;;;;;19.40;97.40;;;;;;5073869;28;19956;-55
2022/06/01 12:52:37;;;;;;;;;;;19.40;97.40;;;;;;5055294;28;19916;-53
2022/06/01 12:55:06;;;;;;;;;;;19.30;97.40;;;;;;5073707;28;20248;-50
2022/06/01 12:57:37;;;;;;;;;;;19.30;97.40;;;;;;5073337;28;19909;-53
2022/06/01 13:00:23;;;;;;;;;;;19.30;97.50;;;;;;5073395;28;20064;-51
2022/06/01 13:02:48;;;;;;;;;;;19.40;97.50;;;;;;5079950;28;19912;-55
2022/06/01 13:05:19;;;;;;;;;;;19.40;97.50;;;;;;5080180;28;19931;-55
2022/06/01 13:07:46;;;;;;;;;;;19.40;97.50;;;;;;5079863;28;19908;-53
2022/06/01 13:10:19;;;;;;;;;;;19.40;97.40;;;;;;5079929;28;19909;-51
2022/06/01 13:12:45;;;;;;;;;;;19.40;97.40;;;;;;5061983;28;19909;-54
2022/06/01 13:15:13;;;;;;;;;;;19.40;97.50;;;;;;5079908;28;19915;-54
2022/06/01 13:17:52;;;;;;;;;;;19.40;97.70;;;;;;5080093;28;19908;-54
2022/06/01 13:20:21;;;;;;;;;;;19.40;97.50;;;;;;5080084;28;19919;-53
2022/06/01 13:22:50;;;;;;;;;;;19.40;97.50;;;;;;5079983;28;19923;-54
2022/06/01 13:25:23;;;;;;;;;;;19.40;97.50;;;;;;5079656;28;19936;-51
2022/06/01 13:27:49;;;;;;;;;;;19.40;97.40;;;;;;5080205;28;19915;-54
2022/06/01 13:30:16;;;;;;;;;;;19.40;97.40;;;;;;5079598;28;19908;-54
2022/06/01 13:32:43;;;;;;;;;;;19.40;97.40;;;;;;5079870;28;19908;-54
2022/06/01 13:35:17;;;;;;;;;;;19.40;97.40;;;;;;5079428;28;19962;-53
2022/06/01 13:37:43;;;;;;;;;;;19.40;97.40;;;;;;5079658;28;19931;-54
2022/06/01 13:40:20;;;;;;;;;;;19.40;97.40;;;;;;5079626;28;19920;-53
2022/06/01 13:42:50;;;;;;;;;;;19.40;97.40;;;;;;5079619;28;19917;-54
2022/06/01 13:45:22;;;;;;;;;;;19.40;97.40;;;;;;5079667;28;19915;-54
2022/06/01 13:47:48;;;;;;;;;;;19.40;97.40;;;;;;5079244;28;20386;-51
2022/06/01 13:50:13;;;;;;;;;;;19.40;97.40;;;;;;5079145;28;19921;-55
2022/06/01 13:52:40;;;;;;;;;;;19.40;97.40;;;;;;5079805;28;19995;-51
2022/06/01 13:55:08;;;;;;;;;;;19.40;97.40;;;;;;5079694;28;20028;-53
2022/06/01 13:57:44;;;;;;;;;;;19.40;97.40;;;;;;5079735;28;19932;-52
2022/06/01 14:00:17;;;;;;;;;;;19.40;97.50;;;;;;5079756;28;19913;-53
2022/06/01 14:02:51;;;;;;;;;;;19.40;97.50;;;;;;5079738;28;19922;-54
2022/06/01 14:05:18;;;;;;;;;;;19.40;97.50;;;;;;5079561;28;19995;-53
2022/06/01 14:07:48;;;;;;;;;;;19.40;97.50;;;;;;5061671;28;19909;-52
2022/06/01 14:10:14;;;;;;;;;;;19.40;97.50;;;;;;5079181;28;19912;-54
2022/06/01 14:12:41;;;;;;;;;;;19.40;97.50;;;;;;5077466;28;19935;-52
2022/06/01 14:15:07;;;;;;;;;;;19.40;97.50;;;;;;5076532;28;19963;-54
2022/06/01 14:17:33;;;;;;;;;;;19.30;97.50;;;;;;5076255;28;19913;-54
2022/06/01 14:19:58;;;;;;;;;;;19.40;97.50;;;;;;5076264;28;19913;-54
2022/06/01 14:22:24;;;;;;;;;;;19.30;97.50;;;;;;5076246;28;19916;-52
2022/06/01 14:30:17;;;;;;;;;;;19.40;97.50;;;;;;5076191;28;20014;-54
2022/06/01 14:32:46;;;;;;;;;;;19.40;97.70;;;;;;5058129;28;20271;-53
2022/06/01 14:35:12;;;;;;;;;;;19.40;97.50;;;;;;5076059;28;20378;-55
2022/06/01 14:37:37;;;;;;;;;;;19.40;97.50;;;;;;5076091;28;19912;-50
2022/06/01 14:40:03;;;;;;;;;;;19.40;97.50;;;;;;5075251;28;19913;-55
2022/06/01 14:42:30;;;;;;;;;;;19.40;97.50;;;;;;5076042;28;20001;-55
2022/06/01 14:44:55;;;;;;;;;;;19.40;97.50;;;;;;5075703;28;19956;-54
2022/06/01 14:47:21;;;;;;;;;;;19.40;97.50;;;;;;5075555;28;19965;-52
2022/06/01 14:49:46;;;;;;;;;;;19.40;97.50;;;;;;5076148;28;19912;-55
2022/06/01 14:52:12;;;;;;;;;;;19.40;97.50;;;;;;5075881;28;19908;-54
2022/06/01 14:54:38;;;;;;;;;;;19.40;97.50;;;;;;5075566;28;20043;-55